sensor_id;sensor_type;location;lat;lon;timestamp;pressure;altitude;pressure_sealevel;temperature;humidity
61682;BME280;47577;43.610;25.010;2022-11-15T00:00:50;101339.22;;;9.25;84.00
61682;BME280;47577;43.610;25.010;2022-11-15T00:03:18;101350.63;;;9.30;84.64
61682;BME280;47577;43.610;25.010;2022-11-15T00:05:44;101346.22;;;9.29;83.67
61682;BME280;47577;43.610;25.010;2022-11-15T00:08:10;101342.69;;;9.30;83.21
61682;BME280;47577;43.610;25.010;2022-11-15T00:10:36;101340.00;;;9.32;82.93
61682;BME280;47577;43.610;25.010;2022-11-15T00:13:12;101346.22;;;9.29;83.36
61682;BME280;47577;43.610;25.010;2022-11-15T00:15:40;101347.97;;;9.32;83.50
61682;BME280;47577;43.610;25.010;2022-11-15T00:18:12;101347.13;;;9.28;84.30
61682;BME280;47577;43.610;25.010;2022-11-15T00:20:38;101346.22;;;9.28;83.16
61682;BME280;47577;43.610;25.010;2022-11-15T00:23:04;101340.09;;;9.24;84.01
61682;BME280;47577;43.610;25.010;2022-11-15T00:25:31;101333.97;;;9.19;83.34
61682;BME280;47577;43.610;25.010;2022-11-15T00:27:57;101337.66;;;9.09;83.17
61682;BME280;47577;43.610;25.010;2022-11-15T00:30:23;101342.81;;;9.18;82.60
61682;BME280;47577;43.610;25.010;2022-11-15T00:32:49;101345.41;;;9.24;83.17
61682;BME280;47577;43.610;25.010;2022-11-15T00:35:15;101334.81;;;9.23;81.99
61682;BME280;47577;43.610;25.010;2022-11-15T00:37:41;101337.47;;;9.23;82.13
61682;BME280;47577;43.610;25.010;2022-11-15T00:40:07;101322.47;;;9.20;82.44
61682;BME280;47577;43.610;25.010;2022-11-15T00:42:33;101330.44;;;9.20;82.24
61682;BME280;47577;43.610;25.010;2022-11-15T00:44:59;101320.78;;;9.13;82.29
61682;BME280;47577;43.610;25.010;2022-11-15T00:47:24;101320.88;;;9.07;82.33
61682;BME280;47577;43.610;25.010;2022-11-15T00:49:50;101321.66;;;9.13;81.45
61682;BME280;47577;43.610;25.010;2022-11-15T00:52:17;101321.59;;;9.18;82.45
61682;BME280;47577;43.610;25.010;2022-11-15T00:54:43;101308.47;;;9.09;82.43
61682;BME280;47577;43.610;25.010;2022-11-15T00:57:08;101281.16;;;9.02;82.01
61682;BME280;47577;43.610;25.010;2022-11-15T00:59:34;101297.91;;;9.06;82.61
61682;BME280;47577;43.610;25.010;2022-11-15T01:02:00;101282.94;;;9.00;81.81
61682;BME280;47577;43.610;25.010;2022-11-15T01:04:26;101296.09;;;9.09;82.78
61682;BME280;47577;43.610;25.010;2022-11-15T01:06:53;101298.78;;;9.06;82.79
61682;BME280;47577;43.610;25.010;2022-11-15T01:09:18;101296.13;;;9.06;82.63
61682;BME280;47577;43.610;25.010;2022-11-15T01:11:44;101290.84;;;9.03;82.06
61682;BME280;47577;43.610;25.010;2022-11-15T01:14:10;101296.16;;;9.02;81.75
61682;BME280;47577;43.610;25.010;2022-11-15T01:16:36;101280.31;;;8.97;82.51
61682;BME280;47577;43.610;25.010;2022-11-15T01:19:02;101280.31;;;8.95;82.12
61682;BME280;47577;43.610;25.010;2022-11-15T01:21:28;101282.13;;;8.95;82.88
61682;BME280;47577;43.610;25.010;2022-11-15T01:23:55;101282.13;;;8.95;81.57
61682;BME280;47577;43.610;25.010;2022-11-15T01:26:21;101284.78;;;8.95;81.64
61682;BME280;47577;43.610;25.010;2022-11-15T01:28:47;101277.81;;;8.88;81.21
61682;BME280;47577;43.610;25.010;2022-11-15T01:31:16;101291.09;;;8.86;81.58
61682;BME280;47577;43.610;25.010;2022-11-15T01:33:42;101270.81;;;8.81;82.24
61682;BME280;47577;43.610;25.010;2022-11-15T01:36:12;101280.41;;;8.91;83.44
61682;BME280;47577;43.610;25.010;2022-11-15T01:38:38;101284.84;;;8.89;81.78
61682;BME280;47577;43.610;25.010;2022-11-15T01:41:03;101271.66;;;8.83;82.68
61682;BME280;47577;43.610;25.010;2022-11-15T01:43:35;101289.38;;;8.81;83.92
61682;BME280;47577;43.610;25.010;2022-11-15T01:46:06;101281.47;;;8.76;84.05
61682;BME280;47577;43.610;25.010;2022-11-15T01:48:33;101272.84;;;8.58;84.32
61682;BME280;47577;43.610;25.010;2022-11-15T01:51:07;101269.28;;;8.61;84.43
61682;BME280;47577;43.610;25.010;2022-11-15T01:53:35;101277.19;;;8.64;83.14
61682;BME280;47577;43.610;25.010;2022-11-15T01:56:05;101271.81;;;8.70;82.44
61682;BME280;47577;43.610;25.010;2022-11-15T01:58:34;101258.63;;;8.64;83.52
61682;BME280;47577;43.610;25.010;2022-11-15T02:01:00;101267.41;;;8.69;83.97
61682;BME280;47577;43.610;25.010;2022-11-15T02:03:33;101260.38;;;8.68;83.99
61682;BME280;47577;43.610;25.010;2022-11-15T02:06:03;101255.06;;;8.68;84.13
61682;BME280;47577;43.610;25.010;2022-11-15T02:08:29;101266.44;;;8.78;83.47
61682;BME280;47577;43.610;25.010;2022-11-15T02:10:55;101258.50;;;8.76;83.47
61682;BME280;47577;43.610;25.010;2022-11-15T02:13:20;101250.59;;;8.73;82.33
61682;BME280;47577;43.610;25.010;2022-11-15T02:21:41;101268.34;;;8.67;82.42
61682;BME280;47577;43.610;25.010;2022-11-15T02:32:46;101261.34;;;8.59;82.32
61682;BME280;47577;43.610;25.010;2022-11-15T02:40:56;101270.03;;;8.71;82.66
61682;BME280;47577;43.610;25.010;2022-11-15T02:43:51;101253.34;;;8.64;82.55
61682;BME280;47577;43.610;25.010;2022-11-15T02:46:45;101257.75;;;8.65;81.78
61682;BME280;47577;43.610;25.010;2022-11-15T02:49:33;101255.09;;;8.65;82.74
61682;BME280;47577;43.610;25.010;2022-11-15T02:52:00;101261.25;;;8.67;82.15
61682;BME280;47577;43.610;25.010;2022-11-15T02:54:29;101264.78;;;8.66;82.70
61682;BME280;47577;43.610;25.010;2022-11-15T02:57:00;101255.06;;;8.68;82.48
61682;BME280;47577;43.610;25.010;2022-11-15T02:59:55;101265.59;;;8.71;81.59
61682;BME280;47577;43.610;25.010;2022-11-15T03:15:38;101253.34;;;8.64;82.74
61682;BME280;47577;43.610;25.010;2022-11-15T03:18:21;101255.19;;;8.57;83.17
61682;BME280;47577;43.610;25.010;2022-11-15T03:20:50;101245.44;;;8.58;82.92
61682;BME280;47577;43.610;25.010;2022-11-15T03:23:17;101244.53;;;8.62;82.22
61682;BME280;47577;43.610;25.010;2022-11-15T03:25:46;101246.22;;;8.68;82.89
61682;BME280;47577;43.610;25.010;2022-11-15T03:28:18;101243.59;;;8.65;82.53
61682;BME280;47577;43.610;25.010;2022-11-15T03:30:47;101247.13;;;8.67;82.70
61682;BME280;47577;43.610;25.010;2022-11-15T03:33:16;101240.88;;;8.71;81.82
61682;BME280;47577;43.610;25.010;2022-11-15T03:35:44;101228.56;;;8.68;82.49
61682;BME280;47577;43.610;25.010;2022-11-15T03:38:24;101240.81;;;8.77;81.59
61682;BME280;47577;43.610;25.010;2022-11-15T03:41:27;101232.91;;;8.72;82.64
61682;BME280;47577;43.610;25.010;2022-11-15T03:43:57;101227.63;;;8.71;81.40
61682;BME280;47577;43.610;25.010;2022-11-15T03:46:37;101210.13;;;8.57;81.62
61682;BME280;47577;43.610;25.010;2022-11-15T03:49:27;101212.69;;;8.65;81.59
61682;BME280;47577;43.610;25.010;2022-11-15T03:51:57;101197.75;;;8.56;82.07
61682;BME280;47577;43.610;25.010;2022-11-15T03:54:23;101208.25;;;8.64;81.48
61682;BME280;47577;43.610;25.010;2022-11-15T03:56:49;101191.59;;;8.54;82.11
61682;BME280;47577;43.610;25.010;2022-11-15T03:59:14;101203.06;;;8.56;81.19
61682;BME280;47577;43.610;25.010;2022-11-15T04:01:40;101214.56;;;8.55;80.50
61682;BME280;47577;43.610;25.010;2022-11-15T04:04:06;101203.03;;;8.59;82.07
61682;BME280;47577;43.610;25.010;2022-11-15T04:06:32;101202.13;;;8.60;81.40
61682;BME280;47577;43.610;25.010;2022-11-15T04:08:57;101191.53;;;8.59;82.08
61682;BME280;47577;43.610;25.010;2022-11-15T04:11:23;101189.81;;;8.55;80.89
61682;BME280;47577;43.610;25.010;2022-11-15T04:13:49;101199.47;;;8.62;81.46
61682;BME280;47577;43.610;25.010;2022-11-15T04:16:14;101190.69;;;8.58;80.80
61682;BME280;47577;43.610;25.010;2022-11-15T04:18:40;101192.44;;;8.58;82.60
61682;BME280;47577;43.610;25.010;2022-11-15T04:21:06;101201.22;;;8.62;82.80
61682;BME280;47577;43.610;25.010;2022-11-15T04:23:51;101205.66;;;8.61;82.40
61682;BME280;47577;43.610;25.010;2022-11-15T04:26:35;101200.41;;;8.56;82.12
61682;BME280;47577;43.610;25.010;2022-11-15T04:29:01;101189.81;;;8.55;82.08
61682;BME280;47577;43.610;25.010;2022-11-15T04:31:45;101195.97;;;8.58;81.97
61682;BME280;47577;43.610;25.010;2022-11-15T04:34:11;101189.81;;;8.56;82.24
61682;BME280;47577;43.610;25.010;2022-11-15T04:36:37;101193.34;;;8.58;82.71
61682;BME280;47577;43.610;25.010;2022-11-15T04:39:21;101183.63;;;8.56;83.18
61682;BME280;47577;43.610;25.010;2022-11-15T04:41:46;101184.47;;;8.58;82.50
61682;BME280;47577;43.610;25.010;2022-11-15T04:44:12;101187.09;;;8.61;82.71
61682;BME280;47577;43.610;25.010;2022-11-15T04:46:37;101192.44;;;8.56;82.79
61682;BME280;47577;43.610;25.010;2022-11-15T04:49:03;101193.38;;;8.55;82.82
61682;BME280;47577;43.610;25.010;2022-11-15T04:51:29;101189.84;;;8.52;83.20
61682;BME280;47577;43.610;25.010;2022-11-15T04:53:54;101185.59;;;8.38;82.38
61682;BME280;47577;43.610;25.010;2022-11-15T04:56:20;101189.97;;;8.46;81.60
61682;BME280;47577;43.610;25.010;2022-11-15T04:58:48;101187.31;;;8.42;82.17
61682;BME280;47577;43.610;25.010;2022-11-15T05:01:14;101181.09;;;8.47;82.40
61682;BME280;47577;43.610;25.010;2022-11-15T05:03:44;101186.34;;;8.50;81.57
61682;BME280;47577;43.610;25.010;2022-11-15T05:06:29;101174.06;;;8.46;83.37
61682;BME280;47577;43.610;25.010;2022-11-15T05:08:55;101171.44;;;8.44;83.35
61682;BME280;47577;43.610;25.010;2022-11-15T05:11:21;101175.00;;;8.37;83.77
61682;BME280;47577;43.610;25.010;2022-11-15T05:13:47;101181.13;;;8.44;82.48
61682;BME280;47577;43.610;25.010;2022-11-15T05:16:13;101182.91;;;8.43;81.84
61682;BME280;47577;43.610;25.010;2022-11-15T05:18:39;101169.66;;;8.40;82.47
61682;BME280;47577;43.610;25.010;2022-11-15T05:21:10;101161.72;;;8.40;82.54
61682;BME280;47577;43.610;25.010;2022-11-15T05:23:36;101176.69;;;8.47;83.50
61682;BME280;47577;43.610;25.010;2022-11-15T05:26:03;101177.53;;;8.51;83.89
61682;BME280;47577;43.610;25.010;2022-11-15T05:28:29;101181.03;;;8.51;83.02
61682;BME280;47577;43.610;25.010;2022-11-15T05:31:02;101167.88;;;8.44;81.84
61682;BME280;47577;43.610;25.010;2022-11-15T05:33:28;101183.66;;;8.53;81.97
61682;BME280;47577;43.610;25.010;2022-11-15T05:38:32;101184.47;;;8.58;82.61
61682;BME280;47577;43.610;25.010;2022-11-15T05:41:00;101179.22;;;8.55;81.47
61682;BME280;47577;43.610;25.010;2022-11-15T05:43:26;101183.72;;;8.50;81.72
61682;BME280;47577;43.610;25.010;2022-11-15T05:45:52;101186.38;;;8.48;83.28
61682;BME280;47577;43.610;25.010;2022-11-15T05:48:18;101188.16;;;8.48;82.84
61682;BME280;47577;43.610;25.010;2022-11-15T05:50:46;101186.44;;;8.40;83.67
61682;BME280;47577;43.610;25.010;2022-11-15T05:53:12;101197.91;;;8.47;81.53
61682;BME280;47577;43.610;25.010;2022-11-15T05:55:40;101194.47;;;8.36;82.90
61682;BME280;47577;43.610;25.010;2022-11-15T05:58:06;101184.72;;;8.38;83.11
61682;BME280;47577;43.610;25.010;2022-11-15T06:00:32;101188.19;;;8.41;82.70
61682;BME280;47577;43.610;25.010;2022-11-15T06:02:58;101185.56;;;8.43;83.08
61682;BME280;47577;43.610;25.010;2022-11-15T06:05:24;101199.59;;;8.50;83.78
61682;BME280;47577;43.610;25.010;2022-11-15T06:07:49;101177.59;;;8.41;82.29
61682;BME280;47577;43.610;25.010;2022-11-15T06:10:15;101188.06;;;8.57;82.56
61682;BME280;47577;43.610;25.010;2022-11-15T06:12:41;101186.31;;;8.53;82.43
61682;BME280;47577;43.610;25.010;2022-11-15T06:15:07;101190.75;;;8.54;82.23
61682;BME280;47577;43.610;25.010;2022-11-15T06:17:33;101198.63;;;8.58;81.18
61682;BME280;47577;43.610;25.010;2022-11-15T06:19:58;101196.88;;;8.56;82.13
61682;BME280;47577;43.610;25.010;2022-11-15T06:22:24;101186.38;;;8.47;80.50
61682;BME280;47577;43.610;25.010;2022-11-15T06:24:49;101197.91;;;8.42;81.46
61682;BME280;47577;43.610;25.010;2022-11-15T06:27:15;101192.69;;;8.35;81.89
61682;BME280;47577;43.610;25.010;2022-11-15T06:29:41;101197.91;;;8.46;81.89
61682;BME280;47577;43.610;25.010;2022-11-15T06:32:06;101193.41;;;8.51;82.31
61682;BME280;47577;43.610;25.010;2022-11-15T06:34:32;101181.06;;;8.48;81.25
61682;BME280;47577;43.610;25.010;2022-11-15T06:36:58;101188.94;;;8.54;80.80
61682;BME280;47577;43.610;25.010;2022-11-15T06:39:23;101196.81;;;8.62;81.29
61682;BME280;47577;43.610;25.010;2022-11-15T06:41:49;101198.53;;;8.63;81.99
61682;BME280;47577;43.610;25.010;2022-11-15T06:44:15;101191.44;;;8.67;82.69
61682;BME280;47577;43.610;25.010;2022-11-15T06:46:41;101191.50;;;8.64;82.38
61682;BME280;47577;43.610;25.010;2022-11-15T06:49:07;101194.09;;;8.67;82.18
61682;BME280;47577;43.610;25.010;2022-11-15T06:51:32;101193.16;;;8.71;81.87
61682;BME280;47577;43.610;25.010;2022-11-15T06:53:58;101189.75;;;8.61;81.04
61682;BME280;47577;43.610;25.010;2022-11-15T06:56:24;101183.66;;;8.54;81.55
61682;BME280;47577;43.610;25.010;2022-11-15T06:58:49;101184.66;;;8.46;81.28
61682;BME280;47577;43.610;25.010;2022-11-15T07:01:15;101185.41;;;8.57;80.97
61682;BME280;47577;43.610;25.010;2022-11-15T07:03:41;101179.09;;;8.64;80.94
61682;BME280;47577;43.610;25.010;2022-11-15T07:06:08;101180.84;;;8.68;81.84
61682;BME280;47577;43.610;25.010;2022-11-15T07:08:35;101181.72;;;8.67;81.53
61682;BME280;47577;43.610;25.010;2022-11-15T07:11:04;101169.34;;;8.66;81.08
61682;BME280;47577;43.610;25.010;2022-11-15T07:13:31;101158.81;;;8.62;81.30
61682;BME280;47577;43.610;25.010;2022-11-15T07:16:08;101154.34;;;8.65;80.99
61682;BME280;47577;43.610;25.010;2022-11-15T07:18:35;101179.94;;;8.66;81.45
61682;BME280;47577;43.610;25.010;2022-11-15T07:21:07;101167.56;;;8.68;81.41
61682;BME280;47577;43.610;25.010;2022-11-15T07:23:36;101175.59;;;8.64;82.18
61682;BME280;47577;43.610;25.010;2022-11-15T07:26:02;101160.59;;;8.61;81.47
61682;BME280;47577;43.610;25.010;2022-11-15T07:28:28;101161.41;;;8.66;80.88
61682;BME280;47577;43.610;25.010;2022-11-15T07:30:54;101156.06;;;8.69;80.66
61682;BME280;47577;43.610;25.010;2022-11-15T07:33:19;101148.06;;;8.72;80.53
61682;BME280;47577;43.610;25.010;2022-11-15T07:35:45;101160.50;;;8.69;81.44
61682;BME280;47577;43.610;25.010;2022-11-15T07:38:14;101167.59;;;8.67;81.17
61682;BME280;47577;43.610;25.010;2022-11-15T07:40:45;101165.75;;;8.72;82.80
61682;BME280;47577;43.610;25.010;2022-11-15T07:43:10;101162.19;;;8.71;80.85
61682;BME280;47577;43.610;25.010;2022-11-15T07:45:43;101169.97;;;8.85;80.98
61682;BME280;47577;43.610;25.010;2022-11-15T07:48:09;101162.91;;;8.84;81.18
61682;BME280;47577;43.610;25.010;2022-11-15T07:50:35;101158.47;;;8.86;79.28
61682;BME280;47577;43.610;25.010;2022-11-15T07:53:01;101170.91;;;8.81;79.96
61682;BME280;47577;43.610;25.010;2022-11-15T07:55:27;101156.84;;;8.74;80.35
61682;BME280;47577;43.610;25.010;2022-11-15T07:58:03;101156.00;;;8.74;81.52
61682;BME280;47577;43.610;25.010;2022-11-15T08:00:30;101164.66;;;8.87;80.48
61682;BME280;47577;43.610;25.010;2022-11-15T08:03:09;101151.50;;;8.77;80.58
61682;BME280;47577;43.610;25.010;2022-11-15T08:05:39;101154.88;;;8.89;80.99
61682;BME280;47577;43.610;25.010;2022-11-15T08:08:06;101154.81;;;8.95;81.27
61682;BME280;47577;43.610;25.010;2022-11-15T08:10:32;101145.19;;;8.88;81.20
61682;BME280;47577;43.610;25.010;2022-11-15T08:13:03;101139.78;;;8.92;81.11
61682;BME280;47577;43.610;25.010;2022-11-15T08:15:29;101146.81;;;8.98;81.29
61682;BME280;47577;43.610;25.010;2022-11-15T08:18:02;101143.47;;;8.84;80.88
61682;BME280;47577;43.610;25.010;2022-11-15T08:20:28;101134.44;;;8.95;80.18
61682;BME280;47577;43.610;25.010;2022-11-15T08:22:58;101143.22;;;9.02;79.84
61682;BME280;47577;43.610;25.010;2022-11-15T08:25:25;101146.66;;;9.07;81.20
61682;BME280;47577;43.610;25.010;2022-11-15T08:27:55;101127.31;;;9.01;80.09
61682;BME280;47577;43.610;25.010;2022-11-15T08:30:21;101138.81;;;9.01;79.27
61682;BME280;47577;43.610;25.010;2022-11-15T08:32:50;101142.22;;;9.09;79.56
61682;BME280;47577;43.610;25.010;2022-11-15T08:35:16;101133.34;;;9.10;79.38
61682;BME280;47577;43.610;25.010;2022-11-15T08:37:42;101136.06;;;9.07;78.70
61682;BME280;47577;43.610;25.010;2022-11-15T08:40:08;101124.56;;;9.05;79.89
61682;BME280;47577;43.610;25.010;2022-11-15T08:42:35;101126.31;;;9.08;79.91
61682;BME280;47577;43.610;25.010;2022-11-15T08:45:00;101121.72;;;9.19;79.37
61682;BME280;47577;43.610;25.010;2022-11-15T08:47:26;101129.66;;;9.19;79.34
61682;BME280;47577;43.610;25.010;2022-11-15T08:49:52;101114.78;;;9.10;79.54
61682;BME280;47577;43.610;25.010;2022-11-15T08:52:18;101114.69;;;9.15;79.91
61682;BME280;47577;43.610;25.010;2022-11-15T08:54:43;101118.91;;;9.28;79.03
61682;BME280;47577;43.610;25.010;2022-11-15T08:57:09;101105.72;;;9.24;78.84
61682;BME280;47577;43.610;25.010;2022-11-15T08:59:36;101104.63;;;9.36;79.48
61682;BME280;47577;43.610;25.010;2022-11-15T09:02:02;101109.00;;;9.38;76.83
61682;BME280;47577;43.610;25.010;2022-11-15T09:04:28;101101.97;;;9.36;77.43
61682;BME280;47577;43.610;25.010;2022-11-15T09:06:53;101099.41;;;9.29;78.31
61682;BME280;47577;43.610;25.010;2022-11-15T09:09:19;101093.34;;;9.21;78.71
61682;BME280;47577;43.610;25.010;2022-11-15T09:11:45;101089.03;;;9.17;78.64
61682;BME280;47577;43.610;25.010;2022-11-15T09:14:12;101097.63;;;9.31;79.68
61682;BME280;47577;43.610;25.010;2022-11-15T09:16:38;101093.97;;;9.37;78.58
61682;BME280;47577;43.610;25.010;2022-11-15T09:19:04;101096.56;;;9.42;76.41
61682;BME280;47577;43.610;25.010;2022-11-15T09:21:30;101089.38;;;9.47;77.21
61682;BME280;47577;43.610;25.010;2022-11-15T09:23:56;101070.06;;;9.39;77.63
61682;BME280;47577;43.610;25.010;2022-11-15T09:26:22;101084.94;;;9.46;77.06
61682;BME280;47577;43.610;25.010;2022-11-15T09:28:47;101084.03;;;9.48;77.67
61682;BME280;47577;43.610;25.010;2022-11-15T09:31:13;101076.13;;;9.45;76.06
61682;BME280;47577;43.610;25.010;2022-11-15T09:33:39;101080.50;;;9.49;77.67
61682;BME280;47577;43.610;25.010;2022-11-15T09:36:07;101072.44;;;9.54;78.51
61682;BME280;47577;43.610;25.010;2022-11-15T09:38:34;101074.16;;;9.57;76.79
61682;BME280;47577;43.610;25.010;2022-11-15T09:43:41;101069.75;;;9.56;77.11
61682;BME280;47577;43.610;25.010;2022-11-15T09:46:37;101062.78;;;9.50;75.30
61682;BME280;47577;43.610;25.010;2022-11-15T09:49:09;101057.53;;;9.47;76.97
61682;BME280;47577;43.610;25.010;2022-11-15T09:51:39;101050.44;;;9.46;77.02
61682;BME280;47577;43.610;25.010;2022-11-15T09:54:35;101051.03;;;9.62;76.57
61682;BME280;47577;43.610;25.010;2022-11-15T09:57:11;101036.03;;;9.61;76.01
61682;BME280;47577;43.610;25.010;2022-11-15T10:02:43;101037.53;;;9.74;76.27
61682;BME280;47577;43.610;25.010;2022-11-15T10:05:16;101032.31;;;9.69;76.39
61682;BME280;47577;43.610;25.010;2022-11-15T10:12:57;101020.59;;;9.78;74.56
61682;BME280;47577;43.610;25.010;2022-11-15T10:15:24;101018.97;;;9.73;73.77
61682;BME280;47577;43.610;25.010;2022-11-15T10:20:48;101020.78;;;9.70;73.21
61682;BME280;47577;43.610;25.010;2022-11-15T10:23:18;101007.63;;;9.64;73.32
61682;BME280;47577;43.610;25.010;2022-11-15T10:25:44;101016.44;;;9.66;72.93
61682;BME280;47577;43.610;25.010;2022-11-15T10:28:28;101013.72;;;9.69;73.79
61682;BME280;47577;43.610;25.010;2022-11-15T10:30:56;101012.03;;;9.65;73.44
61682;BME280;47577;43.610;25.010;2022-11-15T10:33:27;101013.81;;;9.65;74.01
61682;BME280;47577;43.610;25.010;2022-11-15T10:41:15;100997.47;;;9.85;72.22
61682;BME280;47577;43.610;25.010;2022-11-15T10:43:41;100996.56;;;9.84;72.93
61682;BME280;47577;43.610;25.010;2022-11-15T10:46:23;100994.84;;;9.83;73.14
61682;BME280;47577;43.610;25.010;2022-11-15T10:48:49;100970.34;;;9.70;72.89
61682;BME280;47577;43.610;25.010;2022-11-15T10:51:27;100971.84;;;9.82;72.87
61682;BME280;47577;43.610;25.010;2022-11-15T10:53:56;100978.81;;;9.88;73.94
61682;BME280;47577;43.610;25.010;2022-11-15T10:56:24;100976.97;;;9.92;73.31
61682;BME280;47577;43.610;25.010;2022-11-15T10:58:54;100965.41;;;9.93;71.99
61682;BME280;47577;43.610;25.010;2022-11-15T11:01:26;100962.69;;;9.96;71.79
61682;BME280;47577;43.610;25.010;2022-11-15T11:04:05;100957.25;;;10.02;71.52
61682;BME280;47577;43.610;25.010;2022-11-15T11:06:55;100946.69;;;9.99;72.04
61682;BME280;47577;43.610;25.010;2022-11-15T11:09:32;100944.88;;;9.99;72.22
61682;BME280;47577;43.610;25.010;2022-11-15T11:11:58;100941.50;;;9.93;72.36
61682;BME280;47577;43.610;25.010;2022-11-15T11:14:33;100932.78;;;9.87;71.62
61682;BME280;47577;43.610;25.010;2022-11-15T11:17:14;100930.28;;;9.80;71.62
61682;BME280;47577;43.610;25.010;2022-11-15T11:20:01;100931.88;;;9.88;72.48
61682;BME280;47577;43.610;25.010;2022-11-15T11:22:37;100924.63;;;9.95;71.17
61682;BME280;47577;43.610;25.010;2022-11-15T11:25:35;100919.47;;;9.89;71.38
61682;BME280;47577;43.610;25.010;2022-11-15T11:33:37;100914.09;;;9.91;71.14
61682;BME280;47577;43.610;25.010;2022-11-15T11:39:13;100903.31;;;9.98;71.67
61682;BME280;47577;43.610;25.010;2022-11-15T11:47:03;100891.84;;;9.96;70.90
61682;BME280;47577;43.610;25.010;2022-11-15T11:49:44;100891.91;;;9.95;69.79
61682;BME280;47577;43.610;25.010;2022-11-15T11:52:34;100880.31;;;9.97;70.58
61682;BME280;47577;43.610;25.010;2022-11-15T11:55:21;100888.97;;;10.05;69.85
61682;BME280;47577;43.610;25.010;2022-11-15T12:00:43;100882.81;;;10.03;70.76
61682;BME280;47577;43.610;25.010;2022-11-15T12:05:56;100884.63;;;10.03;71.63
61682;BME280;47577;43.610;25.010;2022-11-15T12:14:08;100863.72;;;9.87;70.56
61682;BME280;47577;43.610;25.010;2022-11-15T12:16:38;100865.41;;;9.92;70.75
61682;BME280;47577;43.610;25.010;2022-11-15T12:19:07;100858.38;;;9.89;71.15
61682;BME280;47577;43.610;25.010;2022-11-15T12:29:29;100862.72;;;9.93;70.79
61682;BME280;47577;43.610;25.010;2022-11-15T12:31:57;100856.53;;;9.91;70.53
61682;BME280;47577;43.610;25.010;2022-11-15T12:36:54;100853.66;;;10.00;70.57
61682;BME280;47577;43.610;25.010;2022-11-15T12:39:19;100843.06;;;9.99;70.19
61682;BME280;47577;43.610;25.010;2022-11-15T12:47:26;100841.25;;;10.01;70.62
61682;BME280;47577;43.610;25.010;2022-11-15T12:49:52;100829.88;;;9.96;69.90
61682;BME280;47577;43.610;25.010;2022-11-15T12:52:19;100835.03;;;10.02;70.33
61682;BME280;47577;43.610;25.010;2022-11-15T13:13:43;100810.66;;;10.56;68.23
61682;BME280;47577;43.610;25.010;2022-11-15T13:16:10;100813.81;;;10.36;69.78
61682;BME280;47577;43.610;25.010;2022-11-15T13:18:43;100808.03;;;10.20;69.61
61682;BME280;47577;43.610;25.010;2022-11-15T13:21:23;100812.50;;;10.17;70.10
61682;BME280;47577;43.610;25.010;2022-11-15T13:24:13;100796.28;;;9.95;70.30
61682;BME280;47577;43.610;25.010;2022-11-15T13:26:41;100808.66;;;9.94;69.10
61682;BME280;47577;43.610;25.010;2022-11-15T13:29:16;100791.94;;;9.91;70.53
61682;BME280;47577;43.610;25.010;2022-11-15T13:31:43;100794.66;;;9.87;70.89
61682;BME280;47577;43.610;25.010;2022-11-15T13:36:40;100792.22;;;9.78;71.99
61682;BME280;47577;43.610;25.010;2022-11-15T13:39:34;100793.88;;;9.84;71.16
61682;BME280;47577;43.610;25.010;2022-11-15T13:42:01;100789.28;;;9.91;71.93
61682;BME280;47577;43.610;25.010;2022-11-15T13:44:29;100796.63;;;9.79;70.01
61682;BME280;47577;43.610;25.010;2022-11-15T13:47:06;100796.56;;;9.82;71.14
61682;BME280;47577;43.610;25.010;2022-11-15T13:49:33;100780.63;;;9.82;69.96
61682;BME280;47577;43.610;25.010;2022-11-15T13:52:05;100782.19;;;9.89;69.88
61682;BME280;47577;43.610;25.010;2022-11-15T13:54:39;100787.50;;;9.89;71.33
61682;BME280;47577;43.610;25.010;2022-11-15T13:57:36;100781.34;;;9.89;70.63
61682;BME280;47577;43.610;25.010;2022-11-15T14:00:03;100781.25;;;9.92;70.72
61682;BME280;47577;43.610;25.010;2022-11-15T14:02:32;100779.47;;;9.93;70.64
61682;BME280;47577;43.610;25.010;2022-11-15T14:05:11;100769.94;;;9.85;70.74
61682;BME280;47577;43.610;25.010;2022-11-15T14:07:39;100761.91;;;9.87;70.39
61682;BME280;47577;43.610;25.010;2022-11-15T14:12:54;100763.81;;;9.82;71.04
61682;BME280;47577;43.610;25.010;2022-11-15T14:15:38;100771.66;;;9.88;70.82
61682;BME280;47577;43.610;25.010;2022-11-15T14:18:05;100768.16;;;9.84;70.89
61682;BME280;47577;43.610;25.010;2022-11-15T14:20:38;100764.63;;;9.85;70.97
61682;BME280;47577;43.610;25.010;2022-11-15T14:23:18;100769.03;;;9.86;70.08
61682;BME280;47577;43.610;25.010;2022-11-15T14:25:55;100770.91;;;9.81;71.01
61682;BME280;47577;43.610;25.010;2022-11-15T14:30:52;100759.41;;;9.81;71.41
61682;BME280;47577;43.610;25.010;2022-11-15T14:33:22;100757.69;;;9.78;71.56
61682;BME280;47577;43.610;25.010;2022-11-15T14:35:49;100756.00;;;9.76;70.66
61682;BME280;47577;43.610;25.010;2022-11-15T14:38:15;100742.81;;;9.73;71.62
61682;BME280;47577;43.610;25.010;2022-11-15T14:40:42;100738.44;;;9.70;70.68
61682;BME280;47577;43.610;25.010;2022-11-15T14:43:10;100736.56;;;9.75;72.06
61682;BME280;47577;43.610;25.010;2022-11-15T14:45:37;100742.53;;;9.83;72.05
61682;BME280;47577;43.610;25.010;2022-11-15T14:48:03;100727.72;;;9.73;71.71
61682;BME280;47577;43.610;25.010;2022-11-15T14:50:28;100740.84;;;9.79;72.31
61682;BME280;47577;43.610;25.010;2022-11-15T14:52:54;100745.22;;;9.82;71.51
61682;BME280;47577;43.610;25.010;2022-11-15T14:55:28;100739.25;;;9.74;71.22
61682;BME280;47577;43.610;25.010;2022-11-15T14:57:58;100742.75;;;9.74;71.97
61682;BME280;47577;43.610;25.010;2022-11-15T15:00:24;100743.63;;;9.75;70.21
61682;BME280;47577;43.610;25.010;2022-11-15T15:02:53;100739.25;;;9.74;70.02
61682;BME280;47577;43.610;25.010;2022-11-15T15:05:21;100731.47;;;9.66;71.37